sensor_id;sensor_type;location;lat;lon;timestamp;P1;durP1;ratioP1;P2;durP2;ratioP2
3259;SDS011;22469;48.150;14.004;2023-02-13T00:00:47;48.90;;;23.23;;
3259;SDS011;22469;48.150;14.004;2023-02-13T00:03:15;60.63;;;24.40;;
3259;SDS011;22469;48.150;14.004;2023-02-13T00:05:42;62.63;;;25.97;;
3259;SDS011;22469;48.150;14.004;2023-02-13T00:08:09;52.07;;;25.00;;
3259;SDS011;22469;48.150;14.004;2023-02-13T00:10:36;69.03;;;27.40;;
3259;SDS011;22469;48.150;14.004;2023-02-13T00:13:03;54.70;;;26.37;;
3259;SDS011;22469;48.150;14.004;2023-02-13T00:15:30;58.33;;;23.17;;
3259;SDS011;22469;48.150;14.004;2023-02-13T00:17:58;63.00;;;23.67;;
3259;SDS011;22469;48.150;14.004;2023-02-13T00:20:25;70.80;;;24.03;;
3259;SDS011;22469;48.150;14.004;2023-02-13T00:22:52;64.87;;;23.30;;
3259;SDS011;22469;48.150;14.004;2023-02-13T00:25:19;54.83;;;23.23;;
3259;SDS011;22469;48.150;14.004;2023-02-13T00:27:46;112.53;;;29.47;;
3259;SDS011;22469;48.150;14.004;2023-02-13T00:30:13;70.13;;;28.70;;
3259;SDS011;22469;48.150;14.004;2023-02-13T00:32:41;70.50;;;25.83;;
3259;SDS011;22469;48.150;14.004;2023-02-13T00:35:08;70.87;;;29.37;;
3259;SDS011;22469;48.150;14.004;2023-02-13T00:37:52;73.23;;;24.83;;
3259;SDS011;22469;48.150;14.004;2023-02-13T00:40:19;87.83;;;28.87;;
3259;SDS011;22469;48.150;14.004;2023-02-13T00:42:46;110.30;;;29.10;;
3259;SDS011;22469;48.150;14.004;2023-02-13T00:45:13;99.80;;;30.40;;
3259;SDS011;22469;48.150;14.004;2023-02-13T00:47:40;88.67;;;28.00;;
3259;SDS011;22469;48.150;14.004;2023-02-13T00:50:08;49.83;;;25.53;;
3259;SDS011;22469;48.150;14.004;2023-02-13T00:52:36;48.77;;;24.90;;
3259;SDS011;22469;48.150;14.004;2023-02-13T00:55:03;80.93;;;29.07;;
3259;SDS011;22469;48.150;14.004;2023-02-13T00:57:30;55.70;;;27.17;;
3259;SDS011;22469;48.150;14.004;2023-02-13T00:59:57;82.93;;;29.63;;
3259;SDS011;22469;48.150;14.004;2023-02-13T01:02:24;62.10;;;27.20;;
3259;SDS011;22469;48.150;14.004;2023-02-13T01:04:51;66.03;;;27.30;;
3259;SDS011;22469;48.150;14.004;2023-02-13T01:07:18;62.87;;;26.90;;
3259;SDS011;22469;48.150;14.004;2023-02-13T01:09:45;77.90;;;26.33;;
3259;SDS011;22469;48.150;14.004;2023-02-13T01:12:12;60.80;;;25.43;;
3259;SDS011;22469;48.150;14.004;2023-02-13T01:14:39;85.13;;;27.07;;
3259;SDS011;22469;48.150;14.004;2023-02-13T01:17:06;63.90;;;25.97;;
3259;SDS011;22469;48.150;14.004;2023-02-13T01:19:33;64.07;;;26.40;;
3259;SDS011;22469;48.150;14.004;2023-02-13T01:22:00;88.53;;;29.30;;
3259;SDS011;22469;48.150;14.004;2023-02-13T01:24:27;65.40;;;26.60;;
3259;SDS011;22469;48.150;14.004;2023-02-13T01:26:55;71.00;;;26.77;;
3259;SDS011;22469;48.150;14.004;2023-02-13T01:29:22;75.63;;;25.77;;
3259;SDS011;22469;48.150;14.004;2023-02-13T01:31:49;60.90;;;28.00;;
3259;SDS011;22469;48.150;14.004;2023-02-13T01:34:17;81.97;;;28.60;;
3259;SDS011;22469;48.150;14.004;2023-02-13T01:36:44;55.07;;;25.83;;
3259;SDS011;22469;48.150;14.004;2023-02-13T01:39:11;50.07;;;25.73;;
3259;SDS011;22469;48.150;14.004;2023-02-13T01:41:38;56.60;;;25.67;;
3259;SDS011;22469;48.150;14.004;2023-02-13T01:47:19;52.43;;;23.57;;
3259;SDS011;22469;48.150;14.004;2023-02-13T01:50:54;77.00;;;27.60;;
3259;SDS011;22469;48.150;14.004;2023-02-13T01:53:28;68.13;;;24.70;;
3259;SDS011;22469;48.150;14.004;2023-02-13T01:56:06;63.87;;;25.83;;
3259;SDS011;22469;48.150;14.004;2023-02-13T01:59:07;65.77;;;25.50;;
3259;SDS011;22469;48.150;14.004;2023-02-13T02:01:40;54.73;;;25.37;;
3259;SDS011;22469;48.150;14.004;2023-02-13T02:04:12;64.03;;;26.87;;
3259;SDS011;22469;48.150;14.004;2023-02-13T02:06:51;47.07;;;26.00;;
3259;SDS011;22469;48.150;14.004;2023-02-13T02:09:33;52.60;;;24.37;;
3259;SDS011;22469;48.150;14.004;2023-02-13T02:12:06;55.50;;;25.97;;
3259;SDS011;22469;48.150;14.004;2023-02-13T02:14:51;56.63;;;23.30;;
3259;SDS011;22469;48.150;14.004;2023-02-13T02:17:22;87.03;;;27.73;;
3259;SDS011;22469;48.150;14.004;2023-02-13T02:51:48;46.70;;;23.10;;
3259;SDS011;22469;48.150;14.004;2023-02-13T02:54:36;48.10;;;25.43;;
3259;SDS011;22469;48.150;14.004;2023-02-13T02:57:30;37.67;;;22.33;;
3259;SDS011;22469;48.150;14.004;2023-02-13T03:00:20;38.73;;;24.90;;
3259;SDS011;22469;48.150;14.004;2023-02-13T03:03:16;41.53;;;22.70;;
3259;SDS011;22469;48.150;14.004;2023-02-13T03:06:16;44.97;;;24.80;;
3259;SDS011;22469;48.150;14.004;2023-02-13T03:08:56;36.73;;;22.10;;
3259;SDS011;22469;48.150;14.004;2023-02-13T03:11:47;47.97;;;24.70;;
3259;SDS011;22469;48.150;14.004;2023-02-13T03:14:36;45.50;;;22.93;;
3259;SDS011;22469;48.150;14.004;2023-02-13T03:17:03;40.90;;;25.23;;
3259;SDS011;22469;48.150;14.004;2023-02-13T03:23:05;43.60;;;25.90;;
3259;SDS011;22469;48.150;14.004;2023-02-13T03:28:39;47.10;;;26.73;;
3259;SDS011;22469;48.150;14.004;2023-02-13T03:39:17;36.50;;;19.00;;
3259;SDS011;22469;48.150;14.004;2023-02-13T03:44:33;34.00;;;21.43;;
3259;SDS011;22469;48.150;14.004;2023-02-13T03:47:09;37.67;;;19.70;;
3259;SDS011;22469;48.150;14.004;2023-02-13T03:49:41;33.30;;;20.37;;
3259;SDS011;22469;48.150;14.004;2023-02-13T03:55:10;31.87;;;18.77;;
3259;SDS011;22469;48.150;14.004;2023-02-13T03:58:10;33.13;;;20.13;;
3259;SDS011;22469;48.150;14.004;2023-02-13T04:01:01;36.53;;;19.47;;
3259;SDS011;22469;48.150;14.004;2023-02-13T04:06:35;31.20;;;17.63;;
3259;SDS011;22469;48.150;14.004;2023-02-13T04:09:16;38.17;;;18.57;;
3259;SDS011;22469;48.150;14.004;2023-02-13T04:14:27;28.00;;;18.10;;
3259;SDS011;22469;48.150;14.004;2023-02-13T04:17:35;36.70;;;19.07;;
3259;SDS011;22469;48.150;14.004;2023-02-13T04:20:10;38.13;;;19.80;;
3259;SDS011;22469;48.150;14.004;2023-02-13T04:22:44;39.27;;;19.33;;
3259;SDS011;22469;48.150;14.004;2023-02-13T04:25:14;31.80;;;19.00;;
3259;SDS011;22469;48.150;14.004;2023-02-13T04:27:43;33.83;;;17.47;;
3259;SDS011;22469;48.150;14.004;2023-02-13T04:30:10;31.00;;;18.57;;
3259;SDS011;22469;48.150;14.004;2023-02-13T04:32:38;45.37;;;20.87;;
3259;SDS011;22469;48.150;14.004;2023-02-13T04:35:05;31.93;;;17.03;;
3259;SDS011;22469;48.150;14.004;2023-02-13T04:37:32;35.73;;;18.63;;
3259;SDS011;22469;48.150;14.004;2023-02-13T04:39:59;32.60;;;17.83;;
3259;SDS011;22469;48.150;14.004;2023-02-13T04:42:26;45.40;;;19.17;;
3259;SDS011;22469;48.150;14.004;2023-02-13T04:44:53;30.70;;;20.03;;
3259;SDS011;22469;48.150;14.004;2023-02-13T04:47:20;35.83;;;18.50;;
3259;SDS011;22469;48.150;14.004;2023-02-13T04:49:47;39.33;;;19.20;;
3259;SDS011;22469;48.150;14.004;2023-02-13T04:52:14;29.07;;;18.90;;
3259;SDS011;22469;48.150;14.004;2023-02-13T04:54:41;32.10;;;18.33;;
3259;SDS011;22469;48.150;14.004;2023-02-13T04:57:08;34.13;;;19.53;;
3259;SDS011;22469;48.150;14.004;2023-02-13T04:59:35;33.67;;;18.00;;
3259;SDS011;22469;48.150;14.004;2023-02-13T05:02:02;35.67;;;20.70;;
3259;SDS011;22469;48.150;14.004;2023-02-13T05:04:30;32.90;;;19.17;;
3259;SDS011;22469;48.150;14.004;2023-02-13T05:06:57;39.57;;;19.77;;
3259;SDS011;22469;48.150;14.004;2023-02-13T05:09:24;33.47;;;19.90;;
3259;SDS011;22469;48.150;14.004;2023-02-13T05:11:51;41.37;;;21.23;;
3259;SDS011;22469;48.150;14.004;2023-02-13T05:14:19;28.93;;;18.70;;
3259;SDS011;22469;48.150;14.004;2023-02-13T05:16:46;47.63;;;22.97;;
3259;SDS011;22469;48.150;14.004;2023-02-13T05:19:15;37.60;;;19.50;;
3259;SDS011;22469;48.150;14.004;2023-02-13T05:21:43;36.47;;;19.27;;
3259;SDS011;22469;48.150;14.004;2023-02-13T05:24:28;36.93;;;16.73;;
3259;SDS011;22469;48.150;14.004;2023-02-13T05:26:55;28.57;;;17.70;;
3259;SDS011;22469;48.150;14.004;2023-02-13T05:29:22;34.20;;;18.07;;
3259;SDS011;22469;48.150;14.004;2023-02-13T05:31:50;30.93;;;17.97;;
3259;SDS011;22469;48.150;14.004;2023-02-13T05:34:23;26.90;;;17.10;;
3259;SDS011;22469;48.150;14.004;2023-02-13T05:36:53;41.20;;;22.17;;
3259;SDS011;22469;48.150;14.004;2023-02-13T05:39:20;38.50;;;20.10;;
3259;SDS011;22469;48.150;14.004;2023-02-13T05:41:48;38.00;;;19.23;;
3259;SDS011;22469;48.150;14.004;2023-02-13T05:44:15;52.40;;;20.80;;
3259;SDS011;22469;48.150;14.004;2023-02-13T05:46:43;36.77;;;20.27;;
3259;SDS011;22469;48.150;14.004;2023-02-13T05:49:11;58.47;;;29.93;;
3259;SDS011;22469;48.150;14.004;2023-02-13T05:51:41;53.07;;;20.17;;
3259;SDS011;22469;48.150;14.004;2023-02-13T05:54:08;41.50;;;20.07;;
3259;SDS011;22469;48.150;14.004;2023-02-13T05:56:35;24.67;;;16.67;;
3259;SDS011;22469;48.150;14.004;2023-02-13T05:59:02;38.23;;;19.27;;
3259;SDS011;22469;48.150;14.004;2023-02-13T06:01:29;33.77;;;18.73;;
3259;SDS011;22469;48.150;14.004;2023-02-13T06:03:56;85.50;;;34.23;;
3259;SDS011;22469;48.150;14.004;2023-02-13T06:06:25;61.03;;;30.10;;
3259;SDS011;22469;48.150;14.004;2023-02-13T06:08:53;43.13;;;19.60;;
3259;SDS011;22469;48.150;14.004;2023-02-13T06:11:20;51.07;;;22.00;;
3259;SDS011;22469;48.150;14.004;2023-02-13T06:13:47;75.83;;;31.00;;
3259;SDS011;22469;48.150;14.004;2023-02-13T06:16:14;168.60;;;49.97;;
3259;SDS011;22469;48.150;14.004;2023-02-13T06:18:41;109.60;;;44.03;;
3259;SDS011;22469;48.150;14.004;2023-02-13T06:21:08;79.30;;;32.00;;
3259;SDS011;22469;48.150;14.004;2023-02-13T06:23:35;43.80;;;25.40;;
3259;SDS011;22469;48.150;14.004;2023-02-13T06:26:03;62.13;;;30.60;;
3259;SDS011;22469;48.150;14.004;2023-02-13T06:28:33;55.90;;;36.47;;
3259;SDS011;22469;48.150;14.004;2023-02-13T06:31:00;47.00;;;24.03;;
3259;SDS011;22469;48.150;14.004;2023-02-13T06:33:28;63.30;;;24.23;;
3259;SDS011;22469;48.150;14.004;2023-02-13T06:35:55;36.50;;;20.37;;
3259;SDS011;22469;48.150;14.004;2023-02-13T06:38:22;32.93;;;20.97;;
3259;SDS011;22469;48.150;14.004;2023-02-13T06:40:50;33.77;;;21.33;;
3259;SDS011;22469;48.150;14.004;2023-02-13T06:43:17;58.50;;;23.13;;
3259;SDS011;22469;48.150;14.004;2023-02-13T06:45:44;43.27;;;23.37;;
3259;SDS011;22469;48.150;14.004;2023-02-13T06:48:12;34.63;;;20.17;;
3259;SDS011;22469;48.150;14.004;2023-02-13T06:50:40;41.87;;;24.07;;
3259;SDS011;22469;48.150;14.004;2023-02-13T06:53:07;54.27;;;22.30;;
3259;SDS011;22469;48.150;14.004;2023-02-13T06:55:34;36.97;;;22.20;;
3259;SDS011;22469;48.150;14.004;2023-02-13T06:58:02;37.73;;;21.70;;
3259;SDS011;22469;48.150;14.004;2023-02-13T07:00:29;42.73;;;21.23;;
3259;SDS011;22469;48.150;14.004;2023-02-13T07:03:03;43.57;;;22.70;;
3259;SDS011;22469;48.150;14.004;2023-02-13T07:05:32;41.33;;;21.20;;
3259;SDS011;22469;48.150;14.004;2023-02-13T07:07:59;36.20;;;20.30;;
3259;SDS011;22469;48.150;14.004;2023-02-13T07:10:26;52.40;;;22.57;;
3259;SDS011;22469;48.150;14.004;2023-02-13T07:12:53;47.13;;;22.37;;
3259;SDS011;22469;48.150;14.004;2023-02-13T07:15:32;42.90;;;20.73;;
3259;SDS011;22469;48.150;14.004;2023-02-13T07:18:00;81.83;;;24.87;;
3259;SDS011;22469;48.150;14.004;2023-02-13T07:20:27;43.20;;;22.80;;
3259;SDS011;22469;48.150;14.004;2023-02-13T07:22:58;50.33;;;24.23;;
3259;SDS011;22469;48.150;14.004;2023-02-13T07:25:27;54.20;;;24.10;;
3259;SDS011;22469;48.150;14.004;2023-02-13T07:27:59;60.20;;;26.10;;
3259;SDS011;22469;48.150;14.004;2023-02-13T07:30:32;45.43;;;21.87;;
3259;SDS011;22469;48.150;14.004;2023-02-13T07:33:01;66.33;;;26.03;;
3259;SDS011;22469;48.150;14.004;2023-02-13T07:35:29;44.10;;;21.10;;
3259;SDS011;22469;48.150;14.004;2023-02-13T07:37:56;43.70;;;21.70;;
3259;SDS011;22469;48.150;14.004;2023-02-13T07:40:24;70.00;;;22.03;;
3259;SDS011;22469;48.150;14.004;2023-02-13T07:42:51;31.77;;;19.27;;
3259;SDS011;22469;48.150;14.004;2023-02-13T07:45:18;48.70;;;19.77;;
3259;SDS011;22469;48.150;14.004;2023-02-13T07:47:45;64.40;;;22.00;;
3259;SDS011;22469;48.150;14.004;2023-02-13T07:50:12;42.37;;;22.13;;
3259;SDS011;22469;48.150;14.004;2023-02-13T07:52:39;59.20;;;21.07;;
3259;SDS011;22469;48.150;14.004;2023-02-13T07:55:07;56.67;;;22.40;;
3259;SDS011;22469;48.150;14.004;2023-02-13T07:57:34;54.10;;;19.40;;
3259;SDS011;22469;48.150;14.004;2023-02-13T08:00:01;47.57;;;22.23;;
3259;SDS011;22469;48.150;14.004;2023-02-13T08:02:28;44.93;;;18.37;;
3259;SDS011;22469;48.150;14.004;2023-02-13T08:04:55;43.30;;;17.60;;
3259;SDS011;22469;48.150;14.004;2023-02-13T08:07:22;46.37;;;19.30;;
3259;SDS011;22469;48.150;14.004;2023-02-13T08:09:49;40.23;;;20.80;;
3259;SDS011;22469;48.150;14.004;2023-02-13T08:12:35;62.40;;;18.33;;
3259;SDS011;22469;48.150;14.004;2023-02-13T08:15:02;49.10;;;21.03;;
3259;SDS011;22469;48.150;14.004;2023-02-13T08:17:31;44.07;;;19.30;;
3259;SDS011;22469;48.150;14.004;2023-02-13T08:19:57;43.40;;;18.53;;
3259;SDS011;22469;48.150;14.004;2023-02-13T08:22:24;55.30;;;20.53;;
3259;SDS011;22469;48.150;14.004;2023-02-13T08:24:51;45.87;;;20.23;;
3259;SDS011;22469;48.150;14.004;2023-02-13T08:27:18;50.50;;;21.47;;
3259;SDS011;22469;48.150;14.004;2023-02-13T08:29:45;53.10;;;18.10;;
3259;SDS011;22469;48.150;14.004;2023-02-13T08:32:16;56.10;;;19.93;;
3259;SDS011;22469;48.150;14.004;2023-02-13T08:34:43;33.73;;;18.93;;
3259;SDS011;22469;48.150;14.004;2023-02-13T08:37:10;32.33;;;18.27;;
3259;SDS011;22469;48.150;14.004;2023-02-13T08:39:37;53.20;;;20.43;;
3259;SDS011;22469;48.150;14.004;2023-02-13T08:42:04;40.30;;;18.03;;
3259;SDS011;22469;48.150;14.004;2023-02-13T08:44:31;38.43;;;19.70;;
3259;SDS011;22469;48.150;14.004;2023-02-13T08:46:58;39.23;;;18.00;;
3259;SDS011;22469;48.150;14.004;2023-02-13T08:49:29;39.33;;;18.50;;
3259;SDS011;22469;48.150;14.004;2023-02-13T08:51:56;38.90;;;19.83;;
3259;SDS011;22469;48.150;14.004;2023-02-13T08:54:23;42.83;;;20.63;;
3259;SDS011;22469;48.150;14.004;2023-02-13T08:56:50;31.90;;;20.50;;
3259;SDS011;22469;48.150;14.004;2023-02-13T08:59:17;34.80;;;19.30;;
3259;SDS011;22469;48.150;14.004;2023-02-13T09:01:44;34.73;;;19.03;;
3259;SDS011;22469;48.150;14.004;2023-02-13T09:04:12;35.23;;;19.17;;
3259;SDS011;22469;48.150;14.004;2023-02-13T09:06:43;30.93;;;18.10;;
3259;SDS011;22469;48.150;14.004;2023-02-13T09:09:11;26.93;;;17.13;;
3259;SDS011;22469;48.150;14.004;2023-02-13T09:11:38;32.30;;;19.00;;
3259;SDS011;22469;48.150;14.004;2023-02-13T09:14:05;32.07;;;17.00;;
3259;SDS011;22469;48.150;14.004;2023-02-13T09:16:32;36.13;;;19.93;;
3259;SDS011;22469;48.150;14.004;2023-02-13T09:18:59;43.77;;;20.50;;
3259;SDS011;22469;48.150;14.004;2023-02-13T09:21:26;41.57;;;19.50;;
3259;SDS011;22469;48.150;14.004;2023-02-13T09:23:53;38.37;;;19.40;;
3259;SDS011;22469;48.150;14.004;2023-02-13T09:26:20;42.67;;;20.83;;
3259;SDS011;22469;48.150;14.004;2023-02-13T09:28:47;31.07;;;19.37;;
3259;SDS011;22469;48.150;14.004;2023-02-13T09:31:15;36.47;;;21.63;;
3259;SDS011;22469;48.150;14.004;2023-02-13T09:33:46;41.33;;;20.80;;
3259;SDS011;22469;48.150;14.004;2023-02-13T09:36:15;39.33;;;21.90;;
3259;SDS011;22469;48.150;14.004;2023-02-13T09:38:45;34.40;;;20.47;;
3259;SDS011;22469;48.150;14.004;2023-02-13T09:41:15;42.10;;;21.50;;
3259;SDS011;22469;48.150;14.004;2023-02-13T09:43:57;34.97;;;22.63;;
3259;SDS011;22469;48.150;14.004;2023-02-13T09:46:39;36.47;;;21.30;;
3259;SDS011;22469;48.150;14.004;2023-02-13T09:49:13;46.30;;;24.00;;
3259;SDS011;22469;48.150;14.004;2023-02-13T09:51:43;36.90;;;21.60;;
3259;SDS011;22469;48.150;14.004;2023-02-13T09:54:14;37.07;;;21.50;;
3259;SDS011;22469;48.150;14.004;2023-02-13T09:56:49;30.80;;;20.70;;
3259;SDS011;22469;48.150;14.004;2023-02-13T09:59:38;40.63;;;20.27;;
3259;SDS011;22469;48.150;14.004;2023-02-13T10:11:46;31.37;;;19.07;;
3259;SDS011;22469;48.150;14.004;2023-02-13T10:17:20;24.57;;;16.00;;
3259;SDS011;22469;48.150;14.004;2023-02-13T10:19:59;23.30;;;17.07;;
3259;SDS011;22469;48.150;14.004;2023-02-13T10:22:34;24.50;;;17.30;;
3259;SDS011;22469;48.150;14.004;2023-02-13T10:28:01;20.53;;;15.50;;
3259;SDS011;22469;48.150;14.004;2023-02-13T10:30:38;21.83;;;16.10;;
3259;SDS011;22469;48.150;14.004;2023-02-13T10:33:22;21.13;;;16.57;;
3259;SDS011;22469;48.150;14.004;2023-02-13T10:36:05;22.20;;;16.10;;
3259;SDS011;22469;48.150;14.004;2023-02-13T10:38:54;21.87;;;15.67;;
3259;SDS011;22469;48.150;14.004;2023-02-13T10:55:49;21.87;;;17.13;;
3259;SDS011;22469;48.150;14.004;2023-02-13T11:05:00;18.03;;;16.13;;
3259;SDS011;22469;48.150;14.004;2023-02-13T11:07:36;22.27;;;16.90;;
3259;SDS011;22469;48.150;14.004;2023-02-13T11:10:12;19.93;;;15.27;;
3259;SDS011;22469;48.150;14.004;2023-02-13T11:12:45;19.40;;;15.27;;
3259;SDS011;22469;48.150;14.004;2023-02-13T11:15:21;18.47;;;15.10;;
3259;SDS011;22469;48.150;14.004;2023-02-13T11:17:59;22.10;;;16.70;;
3259;SDS011;22469;48.150;14.004;2023-02-13T11:20:42;19.70;;;15.90;;
3259;SDS011;22469;48.150;14.004;2023-02-13T11:23:16;21.13;;;15.93;;
3259;SDS011;22469;48.150;14.004;2023-02-13T11:25:59;22.47;;;15.77;;
3259;SDS011;22469;48.150;14.004;2023-02-13T11:31:26;17.37;;;14.57;;
3259;SDS011;22469;48.150;14.004;2023-02-13T11:34:17;19.97;;;15.87;;
3259;SDS011;22469;48.150;14.004;2023-02-13T11:36:50;15.47;;;13.47;;
3259;SDS011;22469;48.150;14.004;2023-02-13T11:39:21;18.10;;;13.73;;
3259;SDS011;22469;48.150;14.004;2023-02-13T11:41:48;17.67;;;13.73;;
3259;SDS011;22469;48.150;14.004;2023-02-13T11:44:25;17.67;;;13.80;;
3259;SDS011;22469;48.150;14.004;2023-02-13T11:46:55;16.57;;;13.83;;
3259;SDS011;22469;48.150;14.004;2023-02-13T11:49:26;17.87;;;14.10;;
3259;SDS011;22469;48.150;14.004;2023-02-13T11:52:00;21.77;;;16.50;;
3259;SDS011;22469;48.150;14.004;2023-02-13T11:54:35;20.97;;;16.80;;
3259;SDS011;22469;48.150;14.004;2023-02-13T11:57:19;18.07;;;16.03;;
3259;SDS011;22469;48.150;14.004;2023-02-13T11:59:59;26.40;;;17.37;;
3259;SDS011;22469;48.150;14.004;2023-02-13T12:02:54;20.70;;;16.20;;
3259;SDS011;22469;48.150;14.004;2023-02-13T12:05:23;21.60;;;17.60;;
3259;SDS011;22469;48.150;14.004;2023-02-13T12:07:54;20.77;;;16.47;;
3259;SDS011;22469;48.150;14.004;2023-02-13T12:10:27;18.80;;;15.50;;
3259;SDS011;22469;48.150;14.004;2023-02-13T12:13:10;20.53;;;15.20;;
3259;SDS011;22469;48.150;14.004;2023-02-13T12:15:46;22.70;;;17.90;;
3259;SDS011;22469;48.150;14.004;2023-02-13T12:18:31;21.80;;;15.90;;
3259;SDS011;22469;48.150;14.004;2023-02-13T12:23:57;22.47;;;17.70;;
3259;SDS011;22469;48.150;14.004;2023-02-13T12:27:10;23.17;;;17.60;;
3259;SDS011;22469;48.150;14.004;2023-02-13T12:36:21;21.60;;;17.30;;
3259;SDS011;22469;48.150;14.004;2023-02-13T12:39:36;18.50;;;16.50;;
3259;SDS011;22469;48.150;14.004;2023-02-13T13:08:12;22.87;;;16.73;;
3259;SDS011;22469;48.150;14.004;2023-02-13T13:17:00;22.77;;;17.00;;
3259;SDS011;22469;48.150;14.004;2023-02-13T13:22:41;21.40;;;17.80;;
3259;SDS011;22469;48.150;14.004;2023-02-13T13:25:20;21.90;;;17.17;;
3259;SDS011;22469;48.150;14.004;2023-02-13T13:28:06;24.70;;;19.10;;
3259;SDS011;22469;48.150;14.004;2023-02-13T13:31:10;23.50;;;17.50;;
3259;SDS011;22469;48.150;14.004;2023-02-13T13:33:40;26.20;;;17.70;;
3259;SDS011;22469;48.150;14.004;2023-02-13T13:38:55;20.03;;;15.60;;
3259;SDS011;22469;48.150;14.004;2023-02-13T13:41:55;22.70;;;15.60;;
3259;SDS011;22469;48.150;14.004;2023-02-13T13:47:59;22.03;;;14.87;;
3259;SDS011;22469;48.150;14.004;2023-02-13T13:50:57;20.57;;;16.73;;
3259;SDS011;22469;48.150;14.004;2023-02-13T13:53:25;22.77;;;17.07;;
3259;SDS011;22469;48.150;14.004;2023-02-13T13:58:22;18.20;;;14.37;;
3259;SDS011;22469;48.150;14.004;2023-02-13T14:03:59;18.70;;;14.80;;
3259;SDS011;22469;48.150;14.004;2023-02-13T14:14:51;17.50;;;15.60;;
3259;SDS011;22469;48.150;14.004;2023-02-13T14:20:21;21.10;;;15.50;;
3259;SDS011;22469;48.150;14.004;2023-02-13T14:28:58;15.20;;;12.13;;
3259;SDS011;22469;48.150;14.004;2023-02-13T14:31:56;14.80;;;11.40;;
3259;SDS011;22469;48.150;14.004;2023-02-13T14:34:31;12.20;;;9.83;;
3259;SDS011;22469;48.150;14.004;2023-02-13T14:39:36;23.33;;;16.57;;
3259;SDS011;22469;48.150;14.004;2023-02-13T14:42:24;21.87;;;15.90;;
3259;SDS011;22469;48.150;14.004;2023-02-13T14:44:57;27.77;;;20.30;;
3259;SDS011;22469;48.150;14.004;2023-02-13T14:47:28;23.73;;;19.13;;
3259;SDS011;22469;48.150;14.004;2023-02-13T14:50:05;23.80;;;18.00;;
3259;SDS011;22469;48.150;14.004;2023-02-13T14:52:42;19.57;;;13.97;;
3259;SDS011;22469;48.150;14.004;2023-02-13T14:55:14;14.47;;;9.73;;
3259;SDS011;22469;48.150;14.004;2023-02-13T14:57:56;12.93;;;10.80;;
3259;SDS011;22469;48.150;14.004;2023-02-13T15:00:56;14.43;;;11.30;;
3259;SDS011;22469;48.150;14.004;2023-02-13T15:03:45;14.37;;;12.07;;
3259;SDS011;22469;48.150;14.004;2023-02-13T15:06:28;15.07;;;12.20;;
3259;SDS011;22469;48.150;14.004;2023-02-13T15:09:01;18.77;;;13.87;;
3259;SDS011;22469;48.150;14.004;2023-02-13T15:11:33;19.50;;;13.97;;
3259;SDS011;22469;48.150;14.004;2023-02-13T15:14:21;23.40;;;14.93;;
3259;SDS011;22469;48.150;14.004;2023-02-13T15:17:07;16.37;;;13.00;;
3259;SDS011;22469;48.150;14.004;2023-02-13T15:19:49;17.30;;;11.97;;
3259;SDS011;22469;48.150;14.004;2023-02-13T15:22:20;15.50;;;12.13;;
3259;SDS011;22469;48.150;14.004;2023-02-13T15:24:56;15.40;;;11.60;;
3259;SDS011;22469;48.150;14.004;2023-02-13T15:27:26;16.30;;;12.07;;
3259;SDS011;22469;48.150;14.004;2023-02-13T15:30:00;17.80;;;13.40;;
3259;SDS011;22469;48.150;14.004;2023-02-13T15:32:40;15.17;;;12.90;;
3259;SDS011;22469;48.150;14.004;2023-02-13T15:35:20;15.67;;;13.47;;
3259;SDS011;22469;48.150;14.004;2023-02-13T15:38:15;16.77;;;13.60;;
3259;SDS011;22469;48.150;14.004;2023-02-13T15:41:00;13.47;;;10.87;;
3259;SDS011;22469;48.150;14.004;2023-02-13T15:43:42;16.57;;;12.80;;
3259;SDS011;22469;48.150;14.004;2023-02-13T15:46:18;14.47;;;11.10;;
3259;SDS011;22469;48.150;14.004;2023-02-13T15:49:05;14.10;;;10.90;;
3259;SDS011;22469;48.150;14.004;2023-02-13T15:51:37;15.77;;;12.13;;
3259;SDS011;22469;48.150;14.004;2023-02-13T15:54:05;14.47;;;12.13;;
3259;SDS011;22469;48.150;14.004;2023-02-13T15:56:47;18.47;;;12.43;;
3259;SDS011;22469;48.150;14.004;2023-02-13T15:59:17;15.40;;;11.30;;
3259;SDS011;22469;48.150;14.004;2023-02-13T16:01:45;15.17;;;12.00;;
3259;SDS011;22469;48.150;14.004;2023-02-13T16:04:16;19.47;;;12.90;;
3259;SDS011;22469;48.150;14.004;2023-02-13T16:06:45;18.03;;;13.60;;
3259;SDS011;22469;48.150;14.004;2023-02-13T16:09:33;18.90;;;14.47;;
3259;SDS011;22469;48.150;14.004;2023-02-13T16:12:43;19.33;;;13.50;;
3259;SDS011;22469;48.150;14.004;2023-02-13T16:17:29;23.57;;;16.50;;
3259;SDS011;22469;48.150;14.004;2023-02-13T16:20:03;22.40;;;16.17;;
3259;SDS011;22469;48.150;14.004;2023-02-13T16:25:33;26.27;;;17.70;;
3259;SDS011;22469;48.150;14.004;2023-02-13T16:28:13;27.50;;;19.50;;
3259;SDS011;22469;48.150;14.004;2023-02-13T16:30:54;33.33;;;20.23;;
3259;SDS011;22469;48.150;14.004;2023-02-13T16:33:37;40.67;;;23.20;;
3259;SDS011;22469;48.150;14.004;2023-02-13T16:38:40;45.37;;;27.10;;
3259;SDS011;22469;48.150;14.004;2023-02-13T16:46:36;30.70;;;19.40;;
3259;SDS011;22469;48.150;14.004;2023-02-13T16:51:47;25.93;;;17.77;;
3259;SDS011;22469;48.150;14.004;2023-02-13T16:57:00;22.70;;;15.67;;
3259;SDS011;22469;48.150;14.004;2023-02-13T17:02:23;22.30;;;15.47;;
3259;SDS011;22469;48.150;14.004;2023-02-13T17:07:35;22.80;;;15.63;;
3259;SDS011;22469;48.150;14.004;2023-02-13T17:10:20;21.27;;;17.07;;
3259;SDS011;22469;48.150;14.004;2023-02-13T17:12:57;22.63;;;16.70;;
3259;SDS011;22469;48.150;14.004;2023-02-13T17:15:47;24.60;;;17.50;;
3259;SDS011;22469;48.150;14.004;2023-02-13T17:18:14;28.93;;;19.00;;
3259;SDS011;22469;48.150;14.004;2023-02-13T17:20:44;29.63;;;18.70;;
3259;SDS011;22469;48.150;14.004;2023-02-13T17:23:13;27.57;;;19.87;;
3259;SDS011;22469;48.150;14.004;2023-02-13T17:25:43;28.83;;;19.97;;
3259;SDS011;22469;48.150;14.004;2023-02-13T17:28:14;21.27;;;16.90;;
3259;SDS011;22469;48.150;14.004;2023-02-13T17:30:51;21.90;;;17.00;;
3259;SDS011;22469;48.150;14.004;2023-02-13T17:33:26;23.87;;;16.73;;
3259;SDS011;22469;48.150;14.004;2023-02-13T17:35:56;25.30;;;18.00;;
3259;SDS011;22469;48.150;14.004;2023-02-13T17:38:23;24.43;;;16.83;;
3259;SDS011;22469;48.150;14.004;2023-02-13T17:40:50;29.43;;;18.20;;
3259;SDS011;22469;48.150;14.004;2023-02-13T17:43:18;20.33;;;16.83;;
3259;SDS011;22469;48.150;14.004;2023-02-13T17:45:46;25.90;;;20.17;;
3259;SDS011;22469;48.150;14.004;2023-02-13T17:48:15;25.00;;;18.80;;
3259;SDS011;22469;48.150;14.004;2023-02-13T17:50:43;24.20;;;17.50;;
3259;SDS011;22469;48.150;14.004;2023-02-13T17:53:28;28.57;;;20.50;;
3259;SDS011;22469;48.150;14.004;2023-02-13T17:55:57;24.37;;;19.50;;
3259;SDS011;22469;48.150;14.004;2023-02-13T17:58:24;31.17;;;18.77;;
3259;SDS011;22469;48.150;14.004;2023-02-13T18:00:51;29.90;;;18.77;;
3259;SDS011;22469;48.150;14.004;2023-02-13T18:03:18;25.23;;;18.87;;
3259;SDS011;22469;48.150;14.004;2023-02-13T18:05:46;27.00;;;17.93;;
3259;SDS011;22469;48.150;14.004;2023-02-13T18:08:14;27.13;;;19.50;;
3259;SDS011;22469;48.150;14.004;2023-02-13T18:10:41;29.77;;;21.20;;
3259;SDS011;22469;48.150;14.004;2023-02-13T18:13:08;29.53;;;21.00;;
3259;SDS011;22469;48.150;14.004;2023-02-13T18:15:40;31.70;;;22.90;;